ADDS METAR Data INFO
IDs: Format: Raw Decoded Include TAF

Data at: 0710 UTC 19 Oct 2017

KBWI 190654Z 00000KT 10SM SCT250 07/07 A3028 RMK AO2 SLP254 T00720072
KBWI 190554Z 00000KT 10SM BKN250 08/07 A3029 RMK AO2 SLP257 T00780072 10128 20072 58006
KBWI 190454Z 00000KT 10SM SCT250 08/08 A3030 RMK AO2 SLP259 T00830078 402170039
KBWI 190354Z 00000KT 10SM SCT250 09/08 A3031 RMK AO2 SLP262 T00890083
KBWI 190254Z 27003KT 10SM FEW250 09/08 A3031 RMK AO2 SLP264 T00890083 51005
KBWI 190154Z 00000KT 10SM FEW250 11/09 A3031 RMK AO2 SLP263 T01060089
KBWI 190054Z 00000KT 10SM FEW250 12/08 A3031 RMK AO2 SLP265 T01170083
KBWI 182354Z 19003KT 10SM FEW150 FEW250 12/08 A3030 RMK AO2 SLP260 T01170083 10217 20117 53002
KBWI 182254Z 21003KT 10SM FEW150 FEW250 14/08 A3029 RMK AO2 SLP257 T01440083
KBWI 182154Z 20003KT 10SM FEW150 19/07 A3029 RMK AO2 SLP255 T01940067
KBWI 182054Z 21004KT 10SM FEW150 21/06 A3029 RMK AO2 SLP257 T02110061 56014
KBWI 181954Z 20006KT 10SM FEW150 21/06 A3030 RMK AO2 SLP261 T02110061
KBWI 181854Z 18004KT 10SM CLR 21/06 A3032 RMK AO2 SLP265 T02110061
KBWI 181754Z VRB03KT 10SM CLR 21/06 A3033 RMK AO2 SLP271 T02110061 10211 20056 58016 $
KBWI 181654Z 19005KT 10SM CLR 21/06 A3036 RMK AO2 SLP280 T02060061 $
KBWI 181554Z 22004KT 10SM CLR 20/06 A3038 RMK AO2 SLP286 T02000061 $
KBWI 181454Z 22003KT 10SM CLR 18/07 A3038 RMK AO2 SLP287 T01780067 50007 $
KBWI 181354Z 26004KT 10SM CLR 14/07 A3038 RMK AO2 SLP290 T01390067 $
KBWI 181254Z 25005KT 10SM CLR 09/06 A3038 RMK AO2 SLP287 T00940056 $
KBWI 181154Z 24003KT 10SM CLR 06/04 A3036 RMK AO2 SLP281 T00560044 10061 20039 51009 $
KBWI 181054Z 00000KT 10SM CLR 04/04 A3035 RMK AO2 SLP279 T00440044 $
KBWI 180954Z 23003KT 10SM CLR 04/04 A3034 RMK AO2 SLP275 T00390039
KBWI 180854Z 00000KT 10SM CLR 04/04 A3033 RMK AO2 SLP272 T00440044 53001
KBWI 180754Z COR 00000KT 10SM CLR 05/05 A3033 RMK AO2 SLP269 T00500050
KBWI 180654Z 00000KT 10SM CLR 06/05 A3033 RMK AO2 SLP271 T00560050
KBWI 180554Z 00000KT 10SM CLR 06/05 A3033 RMK AO2 SLP270 T00610050 10106 20050 55002
KBWI 180454Z 00000KT 10SM CLR 06/06 A3033 RMK AO2 SLP270 T00560056 401720033
KBWI 180354Z 24003KT 10SM CLR 07/05 A3033 RMK AO2 SLP271 T00720050
KBWI 180254Z 26003KT 10SM CLR 07/06 A3033 RMK AO2 SLP272 T00670056 51012
KBWI 180154Z 00000KT 10SM CLR 07/06 A3033 RMK AO2 SLP270 T00670056
KBWI 180054Z 00000KT 10SM CLR 09/05 A3031 RMK AO2 SLP265 T00890050
KBWI 172354Z 19004KT 10SM CLR 11/05 A3030 RMK AO2 SLP261 T01060050 10172 20106 53005
KBWI 172254Z 16005KT 10SM FEW250 12/04 A3029 RMK AO2 SLP259 T01220044
KBWI 172154Z 18003KT 10SM FEW250 16/02 A3029 RMK AO2 SLP256 T01560017
KBWI 172054Z 00000KT 10SM FEW250 16/M01 A3029 RMK AO2 SLP256 T01611006 56011
KBWI 171954Z 00000KT 10SM FEW250 16/00 A3030 RMK AO2 SLP260 T01610000